»·PEaware :: SWA1590 KSJC-KLAX

SWA1590 :: KSJC-KLAX

FLIGHT INFORMATION

Flight Status: Arrived
Operator:
Southwest Airlines
More flights by this operator :: More flights under this callsign
Pilot: Dave P. (45)
Aircraft: BOEING 737-700
(B737)
More flights by this aircraft type
Origin: KSJC Mineta San Jose Intl
United States
Destination: KLAX Los Angeles Intl
United States
More flights between these airports :: More routes between these airports
Route: +TECKY3 EBAYE + BURGL ZUUMA2 +
File this flight plan on PilotEdge
Remarks: PBN / A1B1C1D1S1S2 DOF / 181206 REG / N737PM EET / KZLA0022 OPR / SWA PER / C RMK / TCAS SIMBRIEF
Altitude:
(Current/Filed)
35,000ft
Speed:
(Current/Filed)
456kts
Departed: 06-Dec-18 08:53 AM
Arrived: 06-Dec-18 09:42 AM
Distance/Time
Traveled:
267nm/0:48
Distance/Time
To Go:
Arrived

Flight Plot

Page will automatically refresh every two minutes.

Flight plan parsing failed; only flown route is shown


Map Options




Map Legend


Flown Route
Filed Route
Departure Airport
Arrival Airport
Navaid (VOR, NDB)
Fix

Horizontal Profiles

Position Reports

Time Latitude Longitude Heading Altitude Ground
Speed
06-Dec-18 08:11 37.365388 -121.924757 48 70ft 0kts
06-Dec-18 08:12 37.365388 -121.924757 48 70ft 0kts
06-Dec-18 08:13 37.365388 -121.924757 48 70ft 0kts
06-Dec-18 08:14 37.365388 -121.924757 48 70ft 0kts
06-Dec-18 08:15 37.365388 -121.924757 48 70ft 0kts
06-Dec-18 08:16 37.365388 -121.924757 48 70ft 0kts
06-Dec-18 08:17 37.365388 -121.924757 48 70ft 0kts
06-Dec-18 08:18 37.365388 -121.924757 48 70ft 0kts
06-Dec-18 08:19 37.365388 -121.924757 48 70ft 0kts
06-Dec-18 08:20 37.365388 -121.924757 48 70ft 0kts
06-Dec-18 08:21 37.365388 -121.924757 48 70ft 0kts
06-Dec-18 08:22 37.365388 -121.924757 48 70ft 0kts
06-Dec-18 08:23 37.365388 -121.924757 48 70ft 0kts
06-Dec-18 08:24 37.365388 -121.924757 48 70ft 0kts
06-Dec-18 08:25 37.365388 -121.924757 48 70ft 0kts
06-Dec-18 08:26 37.365388 -121.924757 48 70ft 0kts
06-Dec-18 08:27 37.365388 -121.924757 48 70ft 0kts
06-Dec-18 08:28 37.365388 -121.924757 48 70ft 0kts
06-Dec-18 08:29 37.365388 -121.924757 48 70ft 0kts
06-Dec-18 08:30 37.365388 -121.924757 48 70ft 0kts
06-Dec-18 08:31 37.365388 -121.924757 48 70ft 0kts
06-Dec-18 08:32 37.365388 -121.924757 48 70ft 0kts
06-Dec-18 08:33 37.365388 -121.924757 48 70ft 0kts
06-Dec-18 08:34 37.365388 -121.924757 48 70ft 0kts
06-Dec-18 08:35 37.365388 -121.924757 48 70ft 0kts
06-Dec-18 08:36 37.365388 -121.924757 48 70ft 0kts
06-Dec-18 08:37 37.365388 -121.924757 48 70ft 0kts
06-Dec-18 08:38 37.365388 -121.924757 48 70ft 0kts
06-Dec-18 08:39 37.365388 -121.924757 48 70ft 0kts
06-Dec-18 08:40 37.365388 -121.924757 48 70ft 0kts
06-Dec-18 08:41 37.365388 -121.924757 48 70ft 0kts
06-Dec-18 08:42 37.365388 -121.924757 48 70ft 0kts
06-Dec-18 08:43 37.365388 -121.924757 48 70ft 0kts
06-Dec-18 08:44 37.365169 -121.925073 48 70ft 2kts
06-Dec-18 08:45 37.365013 -121.925298 48 70ft 0kts
06-Dec-18 08:46 37.365013 -121.925298 48 70ft 0kts
06-Dec-18 08:47 37.365014 -121.925296 48 70ft 0kts
06-Dec-18 08:48 37.363370 -121.924435 138 70ft 17kts
06-Dec-18 08:49 37.358374 -121.918899 138 70ft 28kts
06-Dec-18 08:50 37.354338 -121.914270 147 70ft 15kts
06-Dec-18 08:51 37.353227 -121.916319 320 70ft 8kts
06-Dec-18 08:52 37.370242 -121.934994 318 402ft 152kts
06-Dec-18 08:53 37.405536 -121.967686 353 2483ft 189kts
06-Dec-18 08:54 37.424293 -121.912742 131 4701ft 251kts
06-Dec-18 08:55 37.370462 -121.850099 129 8298ft 273kts
06-Dec-18 08:56 37.318452 -121.775177 135 11507ft 308kts
06-Dec-18 08:57 37.248208 -121.695803 138 14096ft 357kts
06-Dec-18 08:58 37.172013 -121.610252 138 17598ft 377kts
06-Dec-18 08:59 37.092182 -121.520388 138 20771ft 395kts
06-Dec-18 09:00 37.007521 -121.428177 140 23543ft 411kts
06-Dec-18 09:01 36.918588 -121.333825 140 25877ft 426kts
06-Dec-18 09:02 36.826977 -121.236338 140 27863ft 440kts
06-Dec-18 09:03 36.732204 -121.135793 140 29570ft 452kts
06-Dec-18 09:04 36.635355 -121.033733 140 31245ft 458kts
06-Dec-18 09:05 36.536947 -120.932664 141 32872ft 460kts
06-Dec-18 09:06 36.437126 -120.831648 141 34326ft 463kts
06-Dec-18 09:07 36.336489 -120.729996 141 35000ft 469kts
06-Dec-18 09:08 36.236071 -120.628365 142 35010ft 463kts
06-Dec-18 09:09 36.136245 -120.527941 142 35005ft 462kts
06-Dec-18 09:11 36.036577 -120.427803 143 35006ft 461kts
06-Dec-18 09:12 35.936831 -120.328333 143 35007ft 460kts
06-Dec-18 09:13 35.834979 -120.234243 150 35006ft 457kts
06-Dec-18 09:14 35.726241 -120.153001 150 35008ft 457kts
06-Dec-18 09:15 35.617582 -120.071230 150 34995ft 457kts
06-Dec-18 09:16 35.508881 -119.989160 151 34998ft 458kts
06-Dec-18 09:17 35.400649 -119.907881 151 34993ft 456kts
06-Dec-18 09:18 35.292784 -119.827188 151 34990ft 455kts
06-Dec-18 09:19 35.189275 -119.738196 147 33175ft 454kts
06-Dec-18 09:20 35.086778 -119.648314 148 29950ft 445kts
06-Dec-18 09:21 34.988496 -119.563179 148 27373ft 422kts
06-Dec-18 09:22 34.894636 -119.482120 147 24855ft 406kts
06-Dec-18 09:23 34.803755 -119.403864 147 22378ft 395kts
06-Dec-18 09:24 34.715704 -119.328765 147 20410ft 373kts
06-Dec-18 09:25 34.632262 -119.259402 148 18607ft 354kts
06-Dec-18 09:26 34.552059 -119.192907 147 16862ft 346kts
06-Dec-18 09:27 34.473334 -119.130548 149 14234ft 331kts
06-Dec-18 09:28 34.397418 -119.071467 149 12262ft 323kts
06-Dec-18 09:29 34.324082 -119.014478 148 10903ft 316kts
06-Dec-18 09:30 34.253370 -118.962611 154 10152ft 270kts
06-Dec-18 09:31 34.187028 -118.924360 155 8823ft 254kts
06-Dec-18 09:31 34.135097 -118.894084 154 7726ft 246kts
06-Dec-18 09:33 34.064365 -118.852600 154 6126ft 238kts
06-Dec-18 09:33 34.020514 -118.814145 128 5762ft 238kts
06-Dec-18 09:34 33.985701 -118.753519 125 5003ft 200kts
06-Dec-18 09:36 33.950534 -118.691404 125 3648ft 190kts
06-Dec-18 09:36 33.928925 -118.648426 95 3552ft 180kts
06-Dec-18 09:37 33.932891 -118.590039 83 2692ft 167kts
06-Dec-18 09:38 33.938711 -118.533154 81 1787ft 175kts
06-Dec-18 09:39 33.944179 -118.479814 80 948ft 146kts
06-Dec-18 09:40 33.948856 -118.434236 81 217ft 128kts
06-Dec-18 09:41 33.950760 -118.411003 172 134ft 9kts
06-Dec-18 09:42 33.948706 -118.410691 169 134ft 0kts
06-Dec-18 09:43 33.948287 -118.409960 83 134ft 14kts
06-Dec-18 09:44 33.948841 -118.404539 82 134ft 23kts
06-Dec-18 09:45 33.947015 -118.402570 132 134ft 8kts
06-Dec-18 09:46 33.946921 -118.401820 93 134ft 0kts
06-Dec-18 09:47 33.946921 -118.401820 93 134ft 0kts
06-Dec-18 09:48 33.946921 -118.401820 93 134ft 0kts
06-Dec-18 09:49 33.946921 -118.401820 93 134ft 0kts

Navigation Log

Ident Type
Flight plan parsing failed, navigation log unavailable